Time;durP1;ratioP1;P1;durP2;ratioP2;P2;SDS_P1;SDS_P2;PMS_P1;PMS_P2;Temp;Humidity;BMP_temperature;BMP_pressure;BME280_temperature;BME280_humidity;BME280_pressure;Samples;Min_cycle;Max_cycle;Signal;HPM_P1;HPM_P2
2022/04/14 05:00:43;;;;;;;6.87;6.27;;;12.90;97.20;;;;;;1687567;29;20306;-71
2022/04/14 05:01:34;;;;;;;8.20;7.00;;;12.90;97.20;;;;;;1687703;29;20259;-71
2022/04/14 05:02:25;;;;;;;7.27;6.40;;;12.90;97.20;;;;;;1687466;29;20448;-71
2022/04/14 05:03:16;;;;;;;8.25;6.68;;;12.90;97.20;;;;;;1687547;29;20830;-71
2022/04/14 05:04:09;;;;;;;8.27;6.13;;;12.90;97.20;;;;;;1687686;29;20402;-71
2022/04/14 05:04:59;;;;;;;8.40;6.07;;;13.00;97.20;;;;;;1687567;29;20204;-71
2022/04/14 05:05:51;;;;;;;8.50;6.60;;;13.00;97.20;;;;;;1687643;29;20204;-71
2022/04/14 05:06:42;;;;;;;8.90;6.25;;;13.00;97.20;;;;;;1687632;29;20249;-71
2022/04/14 05:07:34;;;;;;;7.33;6.50;;;13.00;97.20;;;;;;1687662;29;20211;-71
2022/04/14 05:08:24;;;;;;;7.68;6.72;;;13.00;97.20;;;;;;1687161;29;20216;-71
2022/04/14 05:09:17;;;;;;;10.17;6.10;;;13.00;97.20;;;;;;1687414;29;20688;-71
2022/04/14 05:10:08;;;;;;;8.85;6.63;;;13.00;97.20;;;;;;1687598;29;20200;-71
2022/04/14 05:11:00;;;;;;;9.10;7.10;;;13.00;97.20;;;;;;1687420;29;20220;-71
2022/04/14 05:11:51;;;;;;;10.13;6.85;;;13.00;97.20;;;;;;1687640;29;20208;-71
2022/04/14 05:12:42;;;;;;;10.03;7.53;;;13.00;97.20;;;;;;1687472;29;20687;-71
2022/04/14 05:13:33;;;;;;;9.88;7.55;;;13.10;97.20;;;;;;1687636;29;20300;-71
2022/04/14 05:14:25;;;;;;;8.40;7.50;;;13.10;97.20;;;;;;1687389;29;20732;-71
2022/04/14 05:15:16;;;;;;;8.93;7.28;;;13.10;97.20;;;;;;1693304;29;20204;-71
2022/04/14 05:16:09;;;;;;;8.57;7.33;;;13.10;97.20;;;;;;1692241;29;20287;-70
2022/04/14 05:16:59;;;;;;;10.82;7.88;;;13.10;97.20;;;;;;1694075;29;20219;-71
2022/04/14 05:17:51;;;;;;;7.27;6.57;;;13.10;97.20;;;;;;1690107;29;20739;-71
2022/04/14 05:18:42;;;;;;;11.93;7.20;;;13.10;97.20;;;;;;1693792;29;20244;-71
2022/04/14 05:19:34;;;;;;;8.50;7.37;;;13.10;97.20;;;;;;1690181;29;20211;-70
2022/04/14 05:20:24;;;;;;;8.60;7.70;;;13.10;97.20;;;;;;1692368;29;20679;-71
2022/04/14 05:21:16;;;;;;;9.00;7.10;;;13.10;97.20;;;;;;1691660;29;20582;-71
2022/04/14 05:22:07;;;;;;;8.50;7.07;;;13.10;97.20;;;;;;1694188;29;20211;-71
2022/04/14 05:22:59;;;;;;;9.70;7.70;;;13.10;97.20;;;;;;1693987;29;20283;-70
2022/04/14 05:23:49;;;;;;;7.53;6.82;;;13.10;97.20;;;;;;1693931;29;20215;-71
2022/04/14 05:24:41;;;;;;;12.90;7.03;;;13.10;97.20;;;;;;1693873;29;20203;-71
2022/04/14 05:25:32;;;;;;;10.32;6.75;;;13.10;97.20;;;;;;1694189;29;20212;-71
2022/04/14 05:26:24;;;;;;;7.83;7.03;;;13.10;97.20;;;;;;1693913;29;20204;-72
2022/04/14 05:27:14;;;;;;;8.25;6.85;;;13.10;97.20;;;;;;1689358;29;20453;-71
2022/04/14 05:28:06;;;;;;;8.30;6.60;;;13.10;97.20;;;;;;1686864;29;20200;-71
2022/04/14 05:28:57;;;;;;;8.50;6.90;;;13.10;97.20;;;;;;1687148;29;20208;-71
2022/04/14 05:29:49;;;;;;;8.70;7.60;;;13.20;97.20;;;;;;1686992;29;20203;-71
2022/04/14 05:30:39;;;;;;;7.30;6.65;;;13.20;97.20;;;;;;1687583;29;20732;-71
2022/04/14 05:31:33;;;;;;;10.00;7.53;;;13.20;97.20;;;;;;1687941;29;20716;-70
2022/04/14 05:32:23;;;;;;;9.38;6.68;;;13.20;97.20;;;;;;1687753;29;20236;-71
2022/04/14 05:33:15;;;;;;;9.63;7.17;;;13.20;97.20;;;;;;1687822;29;20204;-71
2022/04/14 05:34:06;;;;;;;8.77;7.10;;;13.20;97.20;;;;;;1687696;29;20235;-71
2022/04/14 05:34:57;;;;;;;7.47;6.77;;;13.30;97.20;;;;;;1687850;29;20287;-71
2022/04/14 05:35:48;;;;;;;8.25;7.13;;;13.30;97.20;;;;;;1687723;29;20326;-71
2022/04/14 05:36:40;;;;;;;9.30;7.60;;;13.30;97.20;;;;;;1687750;29;20220;-71
2022/04/14 05:37:31;;;;;;;8.45;6.72;;;13.30;97.20;;;;;;1687772;29;20247;-71
2022/04/14 05:38:22;;;;;;;9.93;7.53;;;13.40;97.20;;;;;;1687360;29;20228;-71
2022/04/14 05:39:13;;;;;;;9.85;7.65;;;13.40;97.20;;;;;;1687672;29;20236;-71
2022/04/14 05:40:08;;;;;;;13.40;7.93;;;13.40;97.20;;;;;;1687742;29;20202;-71
2022/04/14 05:40:59;;;;;;;11.65;8.68;;;13.50;97.20;;;;;;1686486;29;20220;-71
2022/04/14 05:41:51;;;;;;;14.17;8.10;;;13.50;97.20;;;;;;1687370;29;20242;-71
2022/04/14 05:42:45;;;;;;;14.15;8.93;;;13.50;97.20;;;;;;1682021;29;20201;-71
2022/04/14 05:43:37;;;;;;;14.70;9.45;;;13.50;97.20;;;;;;1683462;29;20205;-71
2022/04/14 05:44:28;;;;;;;12.13;9.07;;;13.60;97.20;;;;;;1687680;29;20247;-71
2022/04/14 05:45:20;;;;;;;14.97;9.07;;;13.60;97.20;;;;;;1687662;29;20237;-71
2022/04/14 05:46:11;;;;;;;15.35;8.93;;;13.60;97.20;;;;;;1687765;29;20211;-71
2022/04/14 05:47:04;;;;;;;14.30;8.50;;;13.70;97.20;;;;;;1687686;29;20232;-71
2022/04/14 05:47:55;;;;;;;17.73;8.48;;;13.70;97.20;;;;;;1687691;29;20594;-70
2022/04/14 05:48:48;;;;;;;16.30;9.50;;;13.70;97.20;;;;;;1687324;29;20230;-71
2022/04/14 05:49:39;;;;;;;13.30;7.80;;;13.80;97.20;;;;;;1687551;29;20204;-71
2022/04/14 05:50:30;;;;;;;12.00;8.50;;;13.80;97.20;;;;;;1685913;29;20252;-71
2022/04/14 05:51:22;;;;;;;10.43;8.48;;;13.80;97.20;;;;;;1681257;29;20673;-71
2022/04/14 05:52:13;;;;;;;13.07;8.75;;;13.80;97.20;;;;;;1681247;29;20292;-71
2022/04/14 05:53:04;;;;;;;9.95;8.95;;;13.90;97.20;;;;;;1681211;29;20208;-71
2022/04/14 05:53:56;;;;;;;9.93;8.40;;;13.90;97.20;;;;;;1681202;29;20205;-71
2022/04/14 05:54:47;;;;;;;11.43;10.13;;;14.00;97.20;;;;;;1681175;29;20510;-71
2022/04/14 05:55:41;;;;;;;16.35;10.35;;;14.00;97.20;;;;;;1681092;29;20272;-71
2022/04/14 05:56:31;;;;;;;13.38;11.35;;;14.00;97.20;;;;;;1681260;29;20233;-71
2022/04/14 05:57:23;;;;;;;16.97;12.40;;;14.00;97.20;;;;;;1681158;29;20215;-71
2022/04/14 05:58:14;;;;;;;17.05;14.70;;;14.10;97.20;;;;;;1681137;29;20593;-71
2022/04/14 05:59:06;;;;;;;14.20;12.70;;;14.10;97.20;;;;;;1681211;29;20309;-71
2022/04/14 05:59:57;;;;;;;21.45;16.40;;;14.10;97.20;;;;;;1681195;29;20213;-71
2022/04/14 06:00:49;;;;;;;16.17;14.40;;;14.20;97.20;;;;;;1684340;29;20763;-70
2022/04/14 06:01:40;;;;;;;20.42;18.33;;;14.20;97.20;;;;;;1687350;29;20449;-71
2022/04/14 06:02:33;;;;;;;24.13;18.40;;;14.20;97.20;;;;;;1687823;29;20204;-70
2022/04/14 06:03:24;;;;;;;20.08;17.98;;;14.20;97.20;;;;;;1687706;29;20352;-71
2022/04/14 06:04:15;;;;;;;20.93;18.93;;;14.30;97.20;;;;;;1687729;29;20440;-71
2022/04/14 06:05:07;;;;;;;21.98;19.63;;;14.30;97.20;;;;;;1687632;29;20948;-71
2022/04/14 06:05:59;;;;;;;23.20;19.10;;;14.30;97.20;;;;;;1687577;29;20200;-70
2022/04/14 06:06:50;;;;;;;24.00;19.85;;;14.40;97.20;;;;;;1687625;29;20204;-71
2022/04/14 06:07:41;;;;;;;23.53;21.03;;;14.40;97.20;;;;;;1687612;29;20204;-71
2022/04/14 06:08:32;;;;;;;25.48;20.77;;;14.40;97.20;;;;;;1687433;29;20252;-71
2022/04/14 06:09:24;;;;;;;23.07;20.60;;;14.40;97.20;;;;;;1687548;29;20208;-70
2022/04/14 06:10:15;;;;;;;24.85;22.10;;;14.50;97.20;;;;;;1687587;29;20205;-71
2022/04/14 06:11:09;;;;;;;21.92;19.02;;;14.50;97.20;;;;;;1687259;29;20220;-71
2022/04/14 06:11:59;;;;;;;20.50;18.33;;;14.50;97.20;;;;;;1687694;29;20223;-71
2022/04/14 06:12:51;;;;;;;21.67;19.53;;;14.60;97.20;;;;;;1687655;29;20287;-71
2022/04/14 06:13:42;;;;;;;21.05;19.05;;;14.60;97.20;;;;;;1687612;29;20257;-70
2022/04/14 06:14:34;;;;;;;22.40;20.13;;;14.60;97.20;;;;;;1687769;29;20204;-70
2022/04/14 06:15:26;;;;;;;24.50;21.98;;;14.60;97.20;;;;;;1687738;29;20208;-71
2022/04/14 06:16:18;;;;;;;25.42;22.42;;;14.70;97.20;;;;;;1687815;29;20212;-70
2022/04/14 06:17:09;;;;;;;27.08;23.42;;;14.70;97.20;;;;;;1687622;29;20251;-70
2022/04/14 06:18:02;;;;;;;26.40;22.40;;;14.70;97.20;;;;;;1687654;29;20208;-71
2022/04/14 06:18:52;;;;;;;25.15;22.52;;;14.70;97.20;;;;;;1687665;29;20212;-71
2022/04/14 06:19:44;;;;;;;25.87;23.27;;;14.70;97.20;;;;;;1687371;29;20223;-71
2022/04/14 06:20:35;;;;;;;26.73;22.00;;;14.70;97.20;;;;;;1681122;29;20256;-70
2022/04/14 06:21:27;;;;;;;25.23;22.43;;;14.70;97.20;;;;;;1681177;29;20201;-71
2022/04/14 06:22:17;;;;;;;25.38;22.65;;;14.80;97.20;;;;;;1681262;29;20205;-71
2022/04/14 06:23:10;;;;;;;28.63;22.40;;;14.80;97.20;;;;;;1681244;29;20197;-71
2022/04/14 06:24:01;;;;;;;26.83;24.15;;;14.80;97.20;;;;;;1681098;29;20206;-70
2022/04/14 06:24:53;;;;;;;26.05;23.25;;;14.90;97.20;;;;;;1686474;29;20224;-70
2022/04/14 06:25:45;;;;;;;26.35;23.50;;;14.90;97.20;;;;;;1687608;29;20731;-70
2022/04/14 06:26:37;;;;;;;25.38;22.88;;;14.90;97.20;;;;;;1685943;29;20272;-71
2022/04/14 06:27:28;;;;;;;26.17;23.38;;;15.00;97.20;;;;;;1687603;29;20589;-71
2022/04/14 06:28:20;;;;;;;26.23;23.48;;;15.00;97.20;;;;;;1687227;29;20205;-71
2022/04/14 06:29:11;;;;;;;26.73;24.13;;;15.10;97.20;;;;;;1687513;29;20204;-71
2022/04/14 06:30:03;;;;;;;29.43;25.50;;;15.10;97.20;;;;;;1687382;29;20204;-70
2022/04/14 06:30:54;;;;;;;29.27;26.13;;;15.10;97.20;;;;;;1686206;29;20227;-71
2022/04/14 06:31:45;;;;;;;29.10;26.17;;;15.20;97.20;;;;;;1687575;29;20669;-71
2022/04/14 06:32:36;;;;;;;27.70;24.80;;;15.20;97.20;;;;;;1687488;29;20255;-70
2022/04/14 06:33:30;;;;;;;26.47;23.77;;;15.20;97.20;;;;;;1687503;29;20208;-71
2022/04/14 06:34:21;;;;;;;29.33;26.13;;;15.30;97.20;;;;;;1687592;29;20457;-71
2022/04/14 06:35:14;;;;;;;28.10;25.27;;;15.30;97.20;;;;;;1688046;29;20279;-70
2022/04/14 06:36:05;;;;;;;27.17;24.45;;;15.30;97.20;;;;;;1680896;29;20202;-71
2022/04/14 06:36:57;;;;;;;29.00;25.13;;;15.40;97.20;;;;;;1681213;29;20300;-70
2022/04/14 06:37:47;;;;;;;26.75;23.75;;;15.40;97.20;;;;;;1681181;29;21007;-70
2022/04/14 06:38:40;;;;;;;29.07;26.07;;;15.50;97.20;;;;;;1680643;29;20728;-70
2022/04/14 06:39:31;;;;;;;27.45;24.55;;;15.50;97.20;;;;;;1681113;29;20220;-70
2022/04/14 06:40:23;;;;;;;28.87;25.00;;;15.50;97.20;;;;;;1681017;29;20657;-71
2022/04/14 06:41:13;;;;;;;26.27;23.48;;;15.60;97.20;;;;;;1681215;29;20235;-71
2022/04/14 06:42:06;;;;;;;26.83;23.93;;;15.60;97.20;;;;;;1681158;29;20212;-71
2022/04/14 06:42:57;;;;;;;26.10;23.35;;;15.60;97.20;;;;;;1681143;29;20206;-71
2022/04/14 06:43:49;;;;;;;25.80;23.00;;;15.70;97.20;;;;;;1681206;29;20264;-71
2022/04/14 06:44:40;;;;;;;27.75;23.23;;;15.70;97.20;;;;;;1681176;29;20526;-71
2022/04/14 06:45:32;;;;;;;25.70;23.13;;;15.80;97.20;;;;;;1681402;29;20293;-71
2022/04/14 06:46:23;;;;;;;27.75;23.85;;;15.90;97.20;;;;;;1681000;29;20272;-71
2022/04/14 06:47:15;;;;;;;27.23;23.73;;;15.90;97.20;;;;;;1681154;29;20209;-71
2022/04/14 06:48:07;;;;;;;23.90;21.60;;;16.00;97.20;;;;;;1680786;29;20689;-71
2022/04/14 06:49:00;;;;;;;25.52;22.85;;;16.00;97.20;;;;;;1681073;29;20221;-71
2022/04/14 06:49:51;;;;;;;27.20;23.02;;;16.10;97.20;;;;;;1680939;29;20236;-71
2022/04/14 06:50:43;;;;;;;24.87;22.20;;;16.10;97.20;;;;;;1680972;29;20229;-71
2022/04/14 06:51:33;;;;;;;26.73;23.40;;;16.20;97.20;;;;;;1681073;29;20209;-71
2022/04/14 06:52:25;;;;;;;27.90;23.40;;;16.20;97.20;;;;;;1681020;29;20236;-71
2022/04/14 06:53:16;;;;;;;27.38;24.30;;;16.30;97.20;;;;;;1680976;29;20244;-71
2022/04/14 06:54:08;;;;;;;25.73;23.08;;;16.30;97.20;;;;;;1681087;29;20613;-71
2022/04/14 06:54:59;;;;;;;26.30;23.70;;;16.30;97.20;;;;;;1685896;29;20197;-71
2022/04/14 06:55:52;;;;;;;26.47;23.73;;;16.40;97.20;;;;;;1687500;29;20200;-71
2022/04/14 06:56:43;;;;;;;25.10;22.60;;;16.40;97.20;;;;;;1687400;29;20453;-71
2022/04/14 06:57:35;;;;;;;26.27;21.60;;;16.40;97.20;;;;;;1687536;29;20215;-71
2022/04/14 06:58:26;;;;;;;24.52;21.45;;;16.50;97.20;;;;;;1687096;29;20672;-71
2022/04/14 06:59:17;;;;;;;25.73;23.10;;;16.50;97.20;;;;;;1687441;29;20749;-71
2022/04/14 07:00:09;;;;;;;24.75;22.25;;;16.60;97.20;;;;;;1687531;29;20204;-71
2022/04/14 07:01:01;;;;;;;23.85;21.35;;;16.60;97.20;;;;;;1687419;29;20212;-71
2022/04/14 07:01:52;;;;;;;27.05;22.30;;;16.70;97.20;;;;;;1687499;29;20588;-71
2022/04/14 07:02:47;;;;;;;26.50;23.10;;;16.70;97.20;;;;;;1688346;29;20579;-71
2022/04/14 07:03:38;;;;;;;25.88;20.55;;;16.80;97.20;;;;;;1688666;29;20208;-71
2022/04/14 07:04:31;;;;;;;25.90;23.27;;;16.80;97.20;;;;;;1688074;29;20208;-71
2022/04/14 07:05:22;;;;;;;24.52;21.10;;;16.80;97.20;;;;;;1688549;29;20232;-71
2022/04/14 07:06:14;;;;;;;24.70;21.98;;;16.90;97.20;;;;;;1688711;29;20284;-71
2022/04/14 07:07:05;;;;;;;23.05;20.85;;;17.00;97.20;;;;;;1688590;29;20243;-71
2022/04/14 07:07:56;;;;;;;24.27;21.07;;;17.00;97.20;;;;;;1688695;29;20204;-71
2022/04/14 07:08:47;;;;;;;24.67;21.27;;;17.10;97.20;;;;;;1688201;29;20803;-71
2022/04/14 07:09:39;;;;;;;23.30;21.00;;;17.20;97.20;;;;;;1688572;29;20223;-71
2022/04/14 07:10:30;;;;;;;24.08;21.67;;;17.20;97.20;;;;;;1688571;29;20774;-71
2022/04/14 07:11:21;;;;;;;25.53;20.67;;;17.30;97.20;;;;;;1688612;29;20566;-71
2022/04/14 07:12:13;;;;;;;25.10;22.60;;;17.30;97.20;;;;;;1686618;29;20247;-70
2022/04/14 07:13:04;;;;;;;21.60;19.40;;;17.40;97.20;;;;;;1685634;29;20288;-71
2022/04/14 07:13:55;;;;;;;24.23;21.67;;;17.50;97.20;;;;;;1687848;29;20666;-71
2022/04/14 07:14:47;;;;;;;22.77;20.47;;;17.50;97.20;;;;;;1687788;29;20546;-70
2022/04/14 07:15:38;;;;;;;22.10;19.73;;;17.60;97.20;;;;;;1687911;29;20480;-70
2022/04/14 07:16:30;;;;;;;23.73;21.37;;;17.60;97.20;;;;;;1687058;29;20211;-70
2022/04/14 07:17:22;;;;;;;22.88;20.45;;;17.70;97.20;;;;;;1687386;29;20204;-71
2022/04/14 07:18:14;;;;;;;24.42;19.08;;;17.70;97.20;;;;;;1687262;29;20652;-71
2022/04/14 07:19:05;;;;;;;20.63;18.52;;;17.80;97.20;;;;;;1682636;29;20260;-70
2022/04/14 07:19:58;;;;;;;22.10;18.90;;;17.90;97.20;;;;;;1681432;29;20242;-70
2022/04/14 07:20:48;;;;;;;20.73;18.67;;;17.90;97.20;;;;;;1681415;29;20572;-71
2022/04/14 07:21:40;;;;;;;21.53;19.23;;;18.00;97.20;;;;;;1681422;29;20209;-70
2022/04/14 07:22:40;;;;;;;21.50;19.27;;;18.00;97.20;;;;;;1681408;29;20679;-70
2022/04/14 07:23:31;;;;;;;21.15;19.00;;;18.10;97.20;;;;;;1681656;29;20205;-70
2022/04/14 07:24:22;;;;;;;20.38;17.52;;;18.20;97.20;;;;;;1682116;29;20236;-70
2022/04/14 07:25:15;;;;;;;26.47;19.67;;;18.20;97.20;;;;;;1682120;29;20624;-71
2022/04/14 07:26:06;;;;;;;20.38;17.80;;;18.30;97.20;;;;;;1682206;29;20210;-70
2022/04/14 07:26:58;;;;;;;22.03;19.57;;;18.30;97.20;;;;;;1682167;29;20283;-70
2022/04/14 07:27:48;;;;;;;20.50;18.50;;;18.40;97.20;;;;;;1682092;29;20300;-70
2022/04/14 07:28:40;;;;;;;18.53;16.70;;;18.40;97.20;;;;;;1685903;29;20200;-70
2022/04/14 07:29:31;;;;;;;22.15;19.75;;;18.50;97.20;;;;;;1686349;29;20208;-71
2022/04/14 07:30:24;;;;;;;20.27;18.17;;;18.50;97.20;;;;;;1682378;29;20197;-71
2022/04/14 07:31:15;;;;;;;18.20;16.20;;;18.60;97.20;;;;;;1684110;29;20280;-70
2022/04/14 07:32:07;;;;;;;19.70;17.20;;;18.70;97.20;;;;;;1688598;29;20204;-71
2022/04/14 07:32:58;;;;;;;18.88;16.83;;;18.80;97.20;;;;;;1688564;29;20232;-70
2022/04/14 07:33:49;;;;;;;20.00;18.00;;;18.80;97.20;;;;;;1688506;29;20223;-71
2022/04/14 07:34:40;;;;;;;19.75;17.77;;;18.90;97.20;;;;;;1688426;29;20205;-71
2022/04/14 07:35:34;;;;;;;24.60;21.38;;;19.00;97.20;;;;;;1688466;29;20228;-68
2022/04/14 07:36:25;;;;;;;22.13;19.83;;;19.00;97.20;;;;;;1688463;29;20603;-68
2022/04/14 07:37:16;;;;;;;21.27;19.10;;;19.10;97.20;;;;;;1688560;29;20283;-68
2022/04/14 07:38:07;;;;;;;24.73;20.90;;;19.20;97.20;;;;;;1688102;29;20495;-68
2022/04/14 07:38:59;;;;;;;22.10;19.23;;;19.30;97.20;;;;;;1688298;29;20254;-68
2022/04/14 07:39:50;;;;;;;21.38;19.15;;;19.40;97.20;;;;;;1688335;29;20243;-68
2022/04/14 07:40:42;;;;;;;22.30;19.10;;;19.40;97.20;;;;;;1688389;29;20231;-69
2022/04/14 07:41:32;;;;;;;22.00;19.80;;;19.50;97.20;;;;;;1688484;29;20208;-69
2022/04/14 07:42:32;;;;;;;23.57;21.13;;;19.50;97.20;;;;;;1688470;29;20208;-69
2022/04/14 07:43:23;;;;;;;20.60;18.55;;;19.50;97.20;;;;;;1688385;29;20213;-69
2022/04/14 07:44:15;;;;;;;25.27;22.67;;;19.60;97.20;;;;;;1688492;29;20204;-69
2022/04/14 07:45:08;;;;;;;26.20;20.30;;;19.60;97.20;;;;;;1688479;29;20473;-69
2022/04/14 07:46:01;;;;;;;22.50;19.77;;;19.60;97.20;;;;;;1688479;29;20208;-70
2022/04/14 07:46:51;;;;;;;20.27;18.33;;;19.70;97.20;;;;;;1688498;29;20212;-69
2022/04/14 07:47:44;;;;;;;21.07;18.80;;;19.70;97.20;;;;;;1688399;29;20204;-69
2022/04/14 07:48:35;;;;;;;24.80;20.88;;;19.80;97.20;;;;;;1688149;29;20619;-69
2022/04/14 07:49:27;;;;;;;22.13;19.80;;;19.90;97.20;;;;;;1688309;29;20205;-69
2022/04/14 07:50:20;;;;;;;21.15;18.13;;;19.90;97.20;;;;;;1688374;29;20245;-69
2022/04/14 07:51:13;;;;;;;19.90;17.95;;;20.00;97.20;;;;;;1688447;29;20200;-69
2022/04/14 07:52:05;;;;;;;19.27;17.58;;;20.00;97.20;;;;;;1688439;29;20228;-69
2022/04/14 07:52:59;;;;;;;18.65;16.83;;;20.10;97.20;;;;;;1688430;29;20727;-69
2022/04/14 07:53:52;;;;;;;19.27;16.80;;;20.20;97.20;;;;;;1688311;29;20255;-69
2022/04/14 07:54:44;;;;;;;21.65;18.10;;;20.20;97.20;;;;;;1688378;29;20232;-69
2022/04/14 07:55:35;;;;;;;19.83;17.45;;;20.30;97.20;;;;;;1688384;29;20215;-69
2022/04/14 07:56:27;;;;;;;25.60;17.63;;;20.40;97.20;;;;;;1688286;29;20284;-70
2022/04/14 07:57:17;;;;;;;19.70;17.40;;;20.50;97.20;;;;;;1688269;29;20251;-70
2022/04/14 07:58:10;;;;;;;17.77;15.87;;;20.50;97.20;;;;;;1688015;29;20223;-69
2022/04/14 07:59:01;;;;;;;19.55;17.55;;;20.60;97.20;;;;;;1688155;29;20208;-69
2022/04/14 07:59:53;;;;;;;19.37;17.00;;;20.70;97.20;;;;;;1688286;29;20213;-70
2022/04/14 08:00:45;;;;;;;21.27;17.70;;;20.70;97.20;;;;;;1688110;29;20354;-69
2022/04/14 08:01:36;;;;;;;21.02;17.33;;;20.80;97.20;;;;;;1688329;29;20687;-70
2022/04/14 08:02:27;;;;;;;22.20;18.88;;;20.90;97.20;;;;;;1688279;29;20215;-68
2022/04/14 08:03:19;;;;;;;19.73;17.37;;;20.90;97.20;;;;;;1688307;29;20288;-69
2022/04/14 08:04:11;;;;;;;19.40;17.50;;;21.00;97.20;;;;;;1688210;29;20200;-69
2022/04/14 08:05:03;;;;;;;19.80;17.90;;;21.00;97.20;;;;;;1688333;29;20211;-69
2022/04/14 08:05:54;;;;;;;21.48;16.92;;;21.10;97.20;;;;;;1688268;29;20247;-69
2022/04/14 08:06:47;;;;;;;19.20;17.40;;;21.20;97.20;;;;;;1688272;29;20204;-69
2022/04/14 08:07:38;;;;;;;19.13;17.13;;;21.30;97.20;;;;;;1688272;29;20223;-68
2022/04/14 08:08:29;;;;;;;18.97;16.90;;;21.30;97.20;;;;;;1688095;29;20291;-69
2022/04/14 08:09:20;;;;;;;19.52;17.73;;;21.40;97.20;;;;;;1688149;29;20235;-69
2022/04/14 08:10:12;;;;;;;18.83;17.03;;;21.50;97.20;;;;;;1688218;29;20205;-69
2022/04/14 08:11:04;;;;;;;20.65;17.95;;;21.50;97.20;;;;;;1688246;29;20441;-69
2022/04/14 08:11:55;;;;;;;20.30;18.40;;;21.50;97.20;;;;;;1689125;29;20629;-69
2022/04/14 08:12:47;;;;;;;23.20;17.40;;;21.50;97.20;;;;;;1688269;29;20232;-69
2022/04/14 08:13:40;;;;;;;22.05;18.65;;;21.60;97.20;;;;;;1688007;29;20255;-66
2022/04/14 08:14:31;;;;;;;21.23;17.33;;;21.60;97.20;;;;;;1688296;29;20295;-69
2022/04/14 08:15:23;;;;;;;21.67;16.13;;;21.70;97.20;;;;;;1688316;29;20335;-69
2022/04/14 08:16:14;;;;;;;20.33;18.23;;;21.70;97.20;;;;;;1688414;29;20204;-68
2022/04/14 08:17:05;;;;;;;18.83;17.00;;;21.80;97.20;;;;;;1688236;29;20240;-69
2022/04/14 08:17:57;;;;;;;20.48;17.52;;;21.90;97.20;;;;;;1688226;29;20204;-69
2022/04/14 08:18:48;;;;;;;17.33;15.43;;;22.00;97.20;;;;;;1684791;29;20192;-67
2022/04/14 08:19:40;;;;;;;19.25;15.93;;;22.00;97.20;;;;;;1681913;29;20248;-68
2022/04/14 08:20:33;;;;;;;18.55;16.05;;;22.10;97.20;;;;;;1682559;29;20221;-68
2022/04/14 08:21:24;;;;;;;16.98;15.30;;;22.20;97.20;;;;;;1683089;29;20215;-69
2022/04/14 08:22:18;;;;;;;16.63;14.93;;;22.30;97.20;;;;;;1684063;29;20211;-69
2022/04/14 08:23:12;;;;;;;17.65;15.95;;;22.40;97.20;;;;;;1683334;29;20462;-69
2022/04/14 08:24:04;;;;;;;19.90;15.88;;;22.40;97.20;;;;;;1683548;29;20208;-68
2022/04/14 08:24:55;;;;;;;20.60;14.60;;;22.50;97.20;;;;;;1682890;29;20205;-69
2022/04/14 08:25:46;;;;;;;18.30;15.50;;;22.60;97.20;;;;;;1683511;29;20205;-68
2022/04/14 08:26:37;;;;;;;16.15;14.65;;;22.60;97.20;;;;;;1684324;29;20204;-68
2022/04/14 08:27:29;;;;;;;17.10;14.93;;;22.70;97.20;;;;;;1682635;29;20205;-69
2022/04/14 08:28:19;;;;;;;16.40;14.90;;;22.80;97.20;;;;;;1681549;29;20320;-68
2022/04/14 08:29:11;;;;;;;19.10;16.57;;;22.90;97.20;;;;;;1682307;29;20198;-68
2022/04/14 08:30:02;;;;;;;18.65;16.75;;;22.90;97.20;;;;;;1682909;29;20454;-68
2022/04/14 08:30:54;;;;;;;18.08;16.45;;;23.00;97.20;;;;;;1681661;29;20689;-68
2022/04/14 08:31:45;;;;;;;17.38;14.85;;;23.00;97.20;;;;;;1684054;29;20205;-69
2022/04/14 08:32:38;;;;;;;17.20;15.40;;;23.10;97.20;;;;;;1683207;29;20283;-68
2022/04/14 08:33:30;;;;;;;18.73;16.98;;;23.20;97.20;;;;;;1683220;29;20469;-69
2022/04/14 08:34:21;;;;;;;18.20;16.30;;;23.30;97.20;;;;;;1682598;29;20700;-68
2022/04/14 08:35:14;;;;;;;17.55;15.88;;;23.30;97.20;;;;;;1681789;29;20685;-69
2022/04/14 08:36:08;;;;;;;17.10;15.32;;;23.30;97.20;;;;;;1682340;29;20204;-68
2022/04/14 08:36:59;;;;;;;16.30;14.60;;;23.40;97.20;;;;;;1683066;29;20225;-68
2022/04/14 08:37:52;;;;;;;16.90;15.15;;;23.50;97.20;;;;;;1683140;29;20204;-68
2022/04/14 08:38:44;;;;;;;14.40;13.13;;;23.50;97.20;;;;;;1682913;29;20204;-68
2022/04/14 08:39:36;;;;;;;16.33;14.63;;;23.60;97.20;;;;;;1683174;29;20772;-68
2022/04/14 08:40:32;;;;;;;18.20;13.75;;;23.70;97.20;;;;;;1681931;29;20689;-68
2022/04/14 08:41:30;;;;;;;19.17;13.98;;;23.80;97.20;;;;;;1681905;29;20274;-68
2022/04/14 08:42:24;;;;;;;19.85;15.20;;;23.90;97.20;;;;;;1682993;29;20360;-68
2022/04/14 08:43:22;;;;;;;18.30;16.45;;;24.00;97.20;;;;;;1682775;29;20307;-67
2022/04/14 08:44:19;;;;;;;19.63;15.95;;;24.10;97.20;;;;;;1683145;29;20239;-68
2022/04/14 08:45:14;;;;;;;19.95;16.00;;;24.20;97.20;;;;;;1682273;29;20201;-68
2022/04/14 08:46:06;;;;;;;16.90;15.25;;;24.30;97.20;;;;;;1683938;29;20220;-68
2022/04/14 08:46:59;;;;;;;16.83;15.15;;;24.30;97.20;;;;;;1683344;29;20207;-68
2022/04/14 08:47:50;;;;;;;18.10;16.30;;;24.40;97.20;;;;;;1683330;29;20240;-68
2022/04/14 08:48:44;;;;;;;18.27;14.95;;;24.50;97.20;;;;;;1681693;29;20201;-67
2022/04/14 08:49:35;;;;;;;16.55;14.95;;;24.50;97.20;;;;;;1682325;29;20234;-68
2022/04/14 08:50:28;;;;;;;15.75;14.25;;;24.60;97.20;;;;;;1683180;29;20661;-68
2022/04/14 08:51:20;;;;;;;15.63;14.23;;;24.70;97.20;;;;;;1682922;29;20204;-68
2022/04/14 08:52:14;;;;;;;16.77;15.10;;;24.80;97.20;;;;;;1683285;29;20673;-68
2022/04/14 08:53:07;;;;;;;14.65;13.32;;;24.80;97.20;;;;;;1683327;29;20209;-68
2022/04/14 08:53:59;;;;;;;15.38;13.73;;;24.90;97.20;;;;;;1681896;29;20217;-68
2022/04/14 08:54:50;;;;;;;15.82;13.85;;;25.00;97.20;;;;;;1682550;29;20204;-68
2022/04/14 08:55:43;;;;;;;14.85;13.38;;;25.00;97.20;;;;;;1683238;29;20193;-68
2022/04/14 08:56:36;;;;;;;15.68;14.23;;;25.10;97.20;;;;;;1683675;29;20205;-68
2022/04/14 08:57:27;;;;;;;18.35;14.93;;;25.10;97.20;;;;;;1683166;29;20205;-68
2022/04/14 08:58:26;;;;;;;15.73;13.82;;;25.20;97.20;;;;;;1683124;29;20231;-68
2022/04/14 08:59:19;;;;;;;15.10;13.70;;;25.20;97.20;;;;;;1684200;29;20204;-68
2022/04/14 09:00:12;;;;;;;16.27;14.85;;;25.30;97.20;;;;;;1683346;29;20248;-68
2022/04/14 09:01:04;;;;;;;16.45;14.25;;;25.30;97.20;;;;;;1682645;29;20239;-67
2022/04/14 09:01:56;;;;;;;15.80;14.27;;;25.40;97.20;;;;;;1683473;29;20205;-68
2022/04/14 09:02:49;;;;;;;17.23;15.48;;;25.40;97.20;;;;;;1682842;29;20198;-68
2022/04/14 09:03:41;;;;;;;19.55;14.95;;;25.40;97.20;;;;;;1683220;29;20207;-68
2022/04/14 09:04:38;;;;;;;15.73;14.25;;;25.50;97.20;;;;;;1682574;29;20745;-68
2022/04/14 09:05:29;;;;;;;14.80;13.40;;;25.50;97.20;;;;;;1685436;29;20232;-70
2022/04/14 09:06:21;;;;;;;15.37;13.87;;;25.60;97.20;;;;;;1686811;29;20209;-71
2022/04/14 09:07:13;;;;;;;16.23;14.57;;;25.60;97.20;;;;;;1683136;29;20236;-70
2022/04/14 09:08:07;;;;;;;16.95;15.35;;;25.70;97.20;;;;;;1682446;29;20201;-71
2022/04/14 09:08:58;;;;;;;16.92;15.35;;;25.70;97.20;;;;;;1680650;29;20244;-71
2022/04/14 09:09:50;;;;;;;15.73;14.20;;;25.80;97.20;;;;;;1683042;29;20576;-70
2022/04/14 09:10:42;;;;;;;15.43;13.32;;;25.90;97.20;;;;;;1682407;29;20225;-71
2022/04/14 09:11:34;;;;;;;16.38;14.68;;;25.90;97.20;;;;;;1681680;29;20288;-71
2022/04/14 09:12:25;;;;;;;17.67;15.80;;;26.00;97.20;;;;;;1682888;29;20229;-71
2022/04/14 09:13:17;;;;;;;16.20;14.47;;;26.10;97.20;;;;;;1682325;29;20296;-71
2022/04/14 09:14:09;;;;;;;15.20;13.20;;;26.20;97.20;;;;;;1683212;29;20457;-71
2022/04/14 09:15:01;;;;;;;15.52;12.70;;;26.50;97.20;;;;;;1684451;29;20200;-70
2022/04/14 09:15:52;;;;;;;15.23;13.63;;;27.10;97.00;;;;;;1684009;29;20243;-70
2022/04/14 09:16:44;;;;;;;12.97;11.67;;;28.00;95.40;;;;;;1685564;29;20207;-69
2022/04/14 09:17:35;;;;;;;13.50;12.15;;;28.90;93.60;;;;;;1685312;29;20856;-69
2022/04/14 09:18:27;;;;;;;14.27;12.77;;;29.80;91.90;;;;;;1685073;29;20545;-69
2022/04/14 09:19:18;;;;;;;15.35;13.75;;;30.40;90.40;;;;;;1685889;29;20449;-69
2022/04/14 09:20:33;;;;;;;15.30;13.90;;;30.80;89.00;;;;;;1685355;29;20235;-69
2022/04/14 09:21:24;;;;;;;13.32;12.02;;;31.50;87.60;;;;;;1684762;29;20201;-68
2022/04/14 09:22:16;;;;;;;14.20;12.80;;;32.30;86.60;;;;;;1682699;29;20197;-69
2022/04/14 09:23:13;;;;;;;14.57;12.30;;;33.00;84.70;;;;;;1682786;29;20974;-69
2022/04/14 09:24:05;;;;;;;15.10;12.77;;;33.70;82.90;;;;;;1682114;29;20208;-69
2022/04/14 09:24:57;;;;;;;17.70;11.90;;;34.40;81.50;;;;;;1682409;29;20213;-69